Terminal Aerodrome Forecast
Issued by NWS

Home | Current Version | Previous Version | Text Only | Print | Product List | Glossary On
Versions: 1 2 3 4 5 6 7 8 9 10 11 12 13 14 15 16 17 18 19
000
FTUS44 KLIX 161700
TAFMSY
TAF
KMSY 161731Z 1618/1718 VRB03KT P6SM VCTS SCT035CB BKN070
      TEMPO 1618/1622 3SM TSRA BKN025CB
     FM170100 VRB03KT P6SM BKN100
     FM171400 34004KT P6SM VCSH SCT020 BKN050
     FM171700 04004KT P6SM VCTS SCT025CB BKN070=

USA.gov is the U.S. government's official web portal to all federal, state and local government web resources and services.